Hozan Maru — JJ4010 — position and weather

sailwx.info

Track history (hours):
 
Tides and Currents Weather Stations Pressure Air Temp Water Temp Dewpoint Dewpoint Depression Visibility Wind Speed Wind Dir Waves Ship Positions

Hozan Maru

Last reported at 2015-Feb-01 02:27 UTC. Time now 2015-Feb-01 13:14 UTC.
Position N 34°39' E 135°24'.

Length 38 m; draft 3.6 m.

Type: Tug. MMSI: 431401501.

Date/timePositionNaut miles runAvg speedWind from/ knotsBaromVisibWave heightAir tempDewpointWater temp
2015-Feb-01 02:27N 34°39' E 135°24'1 1.6
2015-Feb-01 01:33N 34°39' E 135°26'1 0.0
2015-Jan-31 03:04N 34°40' E 135°26'2 4.8
2015-Jan-31 02:33N 34°41' E 135°24'5 4.6
2015-Jan-31 01:33N 34°37' E 135°20'5 4.8
2015-Jan-31 00:33N 34°33' E 135°22'2 2.4
2015-Jan-30 23:33N 34°35' E 135°23'5 0.5
2015-Jan-30 14:04N 34°39' E 135°26'612.3
2015-Jan-30 13:33N 34°40' E 135°18'3 3.3
2015-Jan-30 12:33N 34°41' E 135°14'3 3.2
2015-Jan-30 11:33N 34°38' E 135°17'5 5.1
2015-Jan-30 10:33N 34°37' E 135°11'3 3.0
2015-Jan-30 09:33N 34°40' E 135°11'0 0.0
2015-Jan-30 08:33N 34°40' E 135°11'0 0.1
2015-Jan-30 07:33N 34°39' E 135°11'0 0.1
2015-Jan-30 06:33N 34°39' E 135°11'0 0.1
2015-Jan-30 05:33N 34°40' E 135°11'0 0.3
2015-Jan-30 04:33N 34°40' E 135°11'7 6.7
2015-Jan-30 03:33N 34°39' E 135°19'6 0.3
2015-Jan-29 08:33N 34°40' E 135°26'1211.7
2015-Jan-29 07:33N 34°39' E 135°12'1 1.0
2015-Jan-29 06:33N 34°39' E 135°11'0 0.2
2015-Jan-29 05:33N 34°40' E 135°11'0 0.2
2015-Jan-29 04:33N 34°40' E 135°11'0 0.0
2015-Jan-29 03:33N 34°40' E 135°11'0 0.0
2015-Jan-29 02:33N 34°40' E 135°11'0 0.0
2015-Jan-29 01:33N 34°40' E 135°11'0 0.0
2015-Jan-29 00:32N 34°40' E 135°11'0 0.0
2015-Jan-28 23:33N 34°40' E 135°11'0 0.0
2015-Jan-28 22:33N 34°40' E 135°11'1 0.7
2015-Jan-28 21:33N 34°39' E 135°11'2 1.8
2015-Jan-28 20:33N 34°37' E 135°11'4 3.6
2015-Jan-28 19:33N 34°38' E 135°15'3 3.4
2015-Jan-28 18:33N 34°41' E 135°14'2 0.2
2015-Jan-28 08:33N 34°39' E 135°14'11 9.0
2015-Jan-28 07:19N 34°33' E 135°25'1 1.2
2015-Jan-28 06:33N 34°33' E 135°25'4 3.8
2015-Jan-28 05:33N 34°33' E 135°20'3 0.7
2015-Jan-28 01:27N 34°32' E 135°23'1 1.3
2015-Jan-28 00:33N 34°33' E 135°23'2 1.0
2015-Jan-27 22:25N 34°31' E 135°24'3 3.2
2015-Jan-27 21:33N 34°33' E 135°25'5 5.2
2015-Jan-27 20:32N 34°39' E 135°24'0 0.0
2015-Jan-26 08:33N 34°39' E 135°24'1 1.1
2015-Jan-26 07:34N 34°39' E 135°26'0 0.0
2015-Jan-26 06:33N 34°39' E 135°26'0 0.2
2015-Jan-26 05:33N 34°39' E 135°25'2 1.7
2015-Jan-26 04:32N 34°40' E 135°27'1 0.1
2015-Jan-25 09:33N 34°39' E 135°26'1212.3
2015-Jan-25 08:33N 34°37' E 135°11'1514.5
2015-Jan-25 07:33N 34°38' E 134°54'6 0.7
2015-Jan-24 23:21N 34°40' E 134°48'4 0.2
2015-Jan-24 04:20N 34°39' E 134°52'1013.2
2015-Jan-24 03:33N 34°37' E 135°05'1212.3
2015-Jan-24 02:33N 34°38' E 135°20'6 6.0
2015-Jan-24 01:29N 34°39' E 135°27'3 3.0
2015-Jan-24 00:33N 34°38' E 135°24'0 0.3
2015-Jan-23 23:33N 34°38' E 135°24'1 0.7
2015-Jan-23 22:33N 34°39' E 135°24'2 1.8
2015-Jan-23 21:33N 34°39' E 135°27'0 0.0
2015-Jan-23 07:32N 34°38' E 135°27'0 0.2
2015-Jan-23 06:33N 34°38' E 135°27'0 0.0
2015-Jan-23 05:33N 34°38' E 135°27'0 0.0
2015-Jan-23 04:33N 34°38' E 135°27'0 0.0
2015-Jan-23 03:32N 34°38' E 135°27'2 1.7
2015-Jan-23 02:33N 34°39' E 135°25'7 7.0
2015-Jan-23 01:33N 34°33' E 135°23'2 1.6
2015-Jan-23 00:33N 34°31' E 135°23'1 1.4
2015-Jan-22 23:34N 34°31' E 135°21'5 4.5
2015-Jan-22 22:33N 34°26' E 135°19'3 2.7
2015-Jan-22 21:33N 34°29' E 135°20'1211.9
2015-Jan-22 20:33N 34°40' E 135°26'0 0.0
2015-Jan-22 07:33N 34°39' E 135°26'1 0.8
2015-Jan-22 06:33N 34°39' E 135°25'7 6.0
2015-Jan-22 05:22N 34°32' E 135°24'2 0.9
2015-Jan-22 02:33N 34°33' E 135°27'  
Track history (hours):
 
Tides and Currents Weather Stations Pressure Air Temp Water Temp Dewpoint Dewpoint Depression Visibility Wind Speed Wind Dir Waves Ship Positions

Hozan Maru

Last reported at 2015-Feb-01 02:27 UTC. Time now 2015-Feb-01 13:14 UTC.
Position N 34°39' E 135°24'.

Length 38 m; draft 3.6 m.

Type: Tug. MMSI: 431401501.

Date/timePositionNaut miles runAvg speedWind from/ knotsBaromVisibWave heightAir tempDewpointWater temp
2015-Feb-01 02:27N 34°39' E 135°24'1 1.6
2015-Feb-01 01:33N 34°39' E 135°26'1 0.0
2015-Jan-31 03:04N 34°40' E 135°26'2 4.8
2015-Jan-31 02:33N 34°41' E 135°24'5 4.6
2015-Jan-31 01:33N 34°37' E 135°20'5 4.8
2015-Jan-31 00:33N 34°33' E 135°22'2 2.4
2015-Jan-30 23:33N 34°35' E 135°23'5 0.5
2015-Jan-30 14:04N 34°39' E 135°26'612.3
2015-Jan-30 13:33N 34°40' E 135°18'3 3.3
2015-Jan-30 12:33N 34°41' E 135°14'3 3.2
2015-Jan-30 11:33N 34°38' E 135°17'5 5.1
2015-Jan-30 10:33N 34°37' E 135°11'3 3.0
2015-Jan-30 09:33N 34°40' E 135°11'0 0.0
2015-Jan-30 08:33N 34°40' E 135°11'0 0.1
2015-Jan-30 07:33N 34°39' E 135°11'0 0.1
2015-Jan-30 06:33N 34°39' E 135°11'0 0.1
2015-Jan-30 05:33N 34°40' E 135°11'0 0.3
2015-Jan-30 04:33N 34°40' E 135°11'7 6.7
2015-Jan-30 03:33N 34°39' E 135°19'6 0.3
2015-Jan-29 08:33N 34°40' E 135°26'1211.7
2015-Jan-29 07:33N 34°39' E 135°12'1 1.0
2015-Jan-29 06:33N 34°39' E 135°11'0 0.2
2015-Jan-29 05:33N 34°40' E 135°11'0 0.2
2015-Jan-29 04:33N 34°40' E 135°11'0 0.0
2015-Jan-29 03:33N 34°40' E 135°11'0 0.0
2015-Jan-29 02:33N 34°40' E 135°11'0 0.0
2015-Jan-29 01:33N 34°40' E 135°11'0 0.0
2015-Jan-29 00:32N 34°40' E 135°11'0 0.0
2015-Jan-28 23:33N 34°40' E 135°11'0 0.0
2015-Jan-28 22:33N 34°40' E 135°11'1 0.7
2015-Jan-28 21:33N 34°39' E 135°11'2 1.8
2015-Jan-28 20:33N 34°37' E 135°11'4 3.6
2015-Jan-28 19:33N 34°38' E 135°15'3 3.4
2015-Jan-28 18:33N 34°41' E 135°14'2 0.2
2015-Jan-28 08:33N 34°39' E 135°14'11 9.0
2015-Jan-28 07:19N 34°33' E 135°25'1 1.2
2015-Jan-28 06:33N 34°33' E 135°25'4 3.8
2015-Jan-28 05:33N 34°33' E 135°20'3 0.7
2015-Jan-28 01:27N 34°32' E 135°23'1 1.3
2015-Jan-28 00:33N 34°33' E 135°23'2 1.0
2015-Jan-27 22:25N 34°31' E 135°24'3 3.2
2015-Jan-27 21:33N 34°33' E 135°25'5 5.2
2015-Jan-27 20:32N 34°39' E 135°24'0 0.0
2015-Jan-26 08:33N 34°39' E 135°24'1 1.1
2015-Jan-26 07:34N 34°39' E 135°26'0 0.0
2015-Jan-26 06:33N 34°39' E 135°26'0 0.2
2015-Jan-26 05:33N 34°39' E 135°25'2 1.7
2015-Jan-26 04:32N 34°40' E 135°27'1 0.1
2015-Jan-25 09:33N 34°39' E 135°26'1212.3
2015-Jan-25 08:33N 34°37' E 135°11'1514.5
2015-Jan-25 07:33N 34°38' E 134°54'6 0.7
2015-Jan-24 23:21N 34°40' E 134°48'4 0.2
2015-Jan-24 04:20N 34°39' E 134°52'1013.2
2015-Jan-24 03:33N 34°37' E 135°05'1212.3
2015-Jan-24 02:33N 34°38' E 135°20'6 6.0
2015-Jan-24 01:29N 34°39' E 135°27'3 3.0
2015-Jan-24 00:33N 34°38' E 135°24'0 0.3
2015-Jan-23 23:33N 34°38' E 135°24'1 0.7
2015-Jan-23 22:33N 34°39' E 135°24'2 1.8
2015-Jan-23 21:33N 34°39' E 135°27'0 0.0
2015-Jan-23 07:32N 34°38' E 135°27'0 0.2
2015-Jan-23 06:33N 34°38' E 135°27'0 0.0
2015-Jan-23 05:33N 34°38' E 135°27'0 0.0
2015-Jan-23 04:33N 34°38' E 135°27'0 0.0
2015-Jan-23 03:32N 34°38' E 135°27'2 1.7
2015-Jan-23 02:33N 34°39' E 135°25'7 7.0
2015-Jan-23 01:33N 34°33' E 135°23'2 1.6
2015-Jan-23 00:33N 34°31' E 135°23'1 1.4
2015-Jan-22 23:34N 34°31' E 135°21'5 4.5
2015-Jan-22 22:33N 34°26' E 135°19'3 2.7
2015-Jan-22 21:33N 34°29' E 135°20'1211.9
2015-Jan-22 20:33N 34°40' E 135°26'0 0.0
2015-Jan-22 07:33N 34°39' E 135°26'1 0.8
2015-Jan-22 06:33N 34°39' E 135°25'7 6.0
2015-Jan-22 05:22N 34°32' E 135°24'2 0.9
2015-Jan-22 02:33N 34°33' E 135°27'  

Dump ship's entire track history